Time;durP1;ratioP1;P1;durP2;ratioP2;P2;SDS_P1;SDS_P2;PMS_P1;PMS_P2;Temp;Humidity;BMP_temperature;BMP_pressure;BME280_temperature;BME280_humidity;BME280_pressure;Samples;Min_cycle;Max_cycle;Signal;HPM_P1;HPM_P2
2024/03/11 00:00:38;;;;;;;35.08;32.90;;;;;;;7.35;100.00;101081.09;5027617;28;20829;-69
2024/03/11 00:03:07;;;;;;;35.20;33.00;;;;;;;7.39;100.00;101078.97;5026124;28;20053;-69
2024/03/11 00:05:35;;;;;;;37.83;35.20;;;;;;;7.47;100.00;101084.16;5027476;28;20063;-70
2024/03/11 00:08:04;;;;;;;38.08;35.67;;;;;;;7.58;100.00;101081.13;5026996;28;20562;-70
2024/03/11 00:10:33;;;;;;;33.70;31.55;;;;;;;7.67;100.00;101072.13;5022143;28;20095;-69
2024/03/11 00:13:02;;;;;;;36.90;34.70;;;;;;;7.66;100.00;101069.66;5027825;28;20052;-70
2024/03/11 00:15:29;;;;;;;34.70;32.70;;;;;;;7.68;100.00;101065.00;5025166;28;20049;-69
2024/03/11 00:17:56;;;;;;;36.40;33.88;;;;;;;7.67;100.00;101069.47;5028909;28;20041;-71
2024/03/11 00:20:23;;;;;;;44.45;42.05;;;;;;;7.71;100.00;101072.59;5029636;28;20045;-71
2024/03/11 00:22:50;;;;;;;43.67;40.45;;;;;;;7.80;100.00;101074.97;5020276;28;20426;-70
2024/03/11 00:25:17;;;;;;;38.30;36.00;;;;;;;7.89;100.00;101072.25;5026982;28;20057;-70
2024/03/11 00:27:44;;;;;;;39.63;37.22;;;;;;;8.03;100.00;101064.34;5024678;28;20049;-70
2024/03/11 00:30:12;;;;;;;39.80;37.28;;;;;;;7.91;100.00;101062.34;5026596;28;20048;-69
2024/03/11 00:32:43;;;;;;;35.08;33.08;;;;;;;8.04;100.00;101070.47;5021910;28;20056;-69
2024/03/11 00:35:11;;;;;;;34.45;32.45;;;;;;;7.88;100.00;101063.50;5028397;28;20100;-69
2024/03/11 00:37:38;;;;;;;36.67;34.50;;;;;;;7.95;100.00;101063.59;5025793;28;20056;-70
2024/03/11 00:40:07;;;;;;;38.08;35.78;;;;;;;7.75;100.00;101063.31;5026772;28;20774;-69
2024/03/11 00:42:34;;;;;;;40.97;38.58;;;;;;;7.45;100.00;101063.22;5025397;28;20057;-69
2024/03/11 00:45:02;;;;;;;45.58;42.88;;;;;;;7.73;100.00;101068.75;5025900;28;20488;-70
2024/03/11 00:47:30;;;;;;;43.78;41.13;;;;;;;7.52;100.00;101058.03;5025874;28;20085;-70
2024/03/11 00:49:58;;;;;;;40.38;37.90;;;;;;;7.62;100.00;101063.88;5025112;28;20828;-69
2024/03/11 00:52:25;;;;;;;43.20;40.50;;;;;;;7.64;100.00;101069.00;5024232;28;20629;-70
2024/03/11 00:54:52;;;;;;;42.10;39.70;;;;;;;7.62;100.00;101060.44;5025282;28;20045;-70
2024/03/11 00:57:19;;;;;;;39.15;36.90;;;;;;;7.65;100.00;101057.44;5025965;28;20111;-70
2024/03/11 00:59:46;;;;;;;40.38;37.97;;;;;;;7.60;100.00;101051.88;5024050;28;20093;-70
2024/03/11 01:02:13;;;;;;;45.20;42.40;;;;;;;7.66;100.00;101057.25;5024077;28;20061;-70
2024/03/11 01:04:42;;;;;;;41.05;38.55;;;;;;;7.80;100.00;101053.00;5027114;28;20485;-70
2024/03/11 01:07:09;;;;;;;39.35;36.95;;;;;;;7.74;100.00;101051.88;5023337;28;20047;-70
2024/03/11 01:09:36;;;;;;;41.00;38.60;;;;;;;7.76;100.00;101049.91;5021355;28;20107;-69
2024/03/11 01:12:03;;;;;;;39.00;36.70;;;;;;;7.62;100.00;101050.66;5025920;28;20046;-71
2024/03/11 01:14:30;;;;;;;40.28;37.88;;;;;;;7.66;100.00;101053.81;5026321;28;20485;-70
2024/03/11 01:16:57;;;;;;;49.00;46.05;;;;;;;7.78;100.00;101052.38;5026673;28;20061;-69
2024/03/11 01:19:27;;;;;;;42.15;39.38;;;;;;;7.37;100.00;101044.78;5027374;28;20496;-70
2024/03/11 01:21:59;;;;;;;39.67;37.22;;;;;;;7.38;100.00;101046.41;5022003;28;20050;-71
2024/03/11 01:24:26;;;;;;;39.30;36.80;;;;;;;7.56;100.00;101038.16;5015029;28;20084;-71
2024/03/11 01:26:56;;;;;;;39.25;36.95;;;;;;;7.66;100.00;101046.69;5020812;28;20083;-70
2024/03/11 01:29:24;;;;;;;40.15;37.85;;;;;;;7.71;100.00;101043.50;5027488;28;20552;-70
2024/03/11 01:31:50;;;;;;;42.50;39.55;;;;;;;7.61;100.00;101048.22;5026028;28;20045;-70
2024/03/11 01:34:19;;;;;;;38.88;36.53;;;;;;;7.62;100.00;101053.31;5027131;28;20131;-70
2024/03/11 01:36:46;;;;;;;42.25;39.80;;;;;;;7.65;100.00;101055.59;5023654;28;20050;-71
2024/03/11 01:39:25;;;;;;;42.83;40.25;;;;;;;7.63;100.00;101048.88;5024240;28;20049;-69
2024/03/11 01:41:53;;;;;;;43.05;40.35;;;;;;;7.62;100.00;101050.66;5024549;28;20052;-70
2024/03/11 01:44:21;;;;;;;40.60;37.90;;;;;;;7.34;100.00;101053.88;5022688;28;20099;-69
2024/03/11 01:46:50;;;;;;;43.40;40.50;;;;;;;7.43;100.00;101045.88;5025653;28;20543;-69
2024/03/11 01:49:17;;;;;;;39.22;36.83;;;;;;;7.37;100.00;101043.94;5025158;28;20142;-70
2024/03/11 01:51:44;;;;;;;38.70;36.40;;;;;;;7.29;100.00;101043.03;5022952;28;20061;-69
2024/03/11 01:54:12;;;;;;;39.90;37.17;;;;;;;6.88;100.00;101043.28;5026470;28;20050;-69
2024/03/11 01:56:40;;;;;;;42.50;39.80;;;;;;;6.54;100.00;101040.97;5022835;28;20061;-69
2024/03/11 01:59:09;;;;;;;43.35;40.75;;;;;;;6.59;100.00;101040.44;5023538;28;20158;-70
2024/03/11 02:01:38;;;;;;;43.70;40.80;;;;;;;6.44;100.00;101040.31;5025996;28;20103;-70
2024/03/11 02:04:05;;;;;;;39.72;37.15;;;;;;;6.40;100.00;101039.03;5027063;28;20055;-70
2024/03/11 02:06:33;;;;;;;42.17;39.53;;;;;;;6.53;100.00;101047.22;5025775;28;20060;-70
2024/03/11 02:08:59;;;;;;;44.22;41.25;;;;;;;6.54;100.00;101045.44;5026672;28;20131;-69
2024/03/11 02:11:26;;;;;;;41.22;38.53;;;;;;;6.40;100.00;101046.94;5026211;28;20041;-69
2024/03/11 02:13:54;;;;;;;36.83;34.17;;;;;;;6.38;100.00;101047.13;5023987;28;20060;-70
2024/03/11 02:16:22;;;;;;;41.33;38.33;;;;;;;6.38;100.00;101047.13;5027155;28;20049;-70
2024/03/11 02:18:51;;;;;;;49.35;46.10;;;;;;;6.45;100.00;101039.34;5028251;28;20536;-70
2024/03/11 02:21:18;;;;;;;40.22;37.53;;;;;;;6.71;100.00;101046.97;5030127;28;20073;-70
2024/03/11 02:23:47;;;;;;;39.53;36.83;;;;;;;6.21;100.00;101039.44;5024828;28;20605;-69
2024/03/11 02:26:13;;;;;;;45.45;42.65;;;;;;;6.18;100.00;101037.97;5028547;28;20144;-70
2024/03/11 02:28:40;;;;;;;43.30;40.40;;;;;;;6.16;100.00;101045.22;5030162;28;20528;-70
2024/03/11 02:31:08;;;;;;;43.53;40.63;;;;;;;6.30;100.00;101046.34;5029724;28;20041;-70
2024/03/11 02:33:35;;;;;;;40.45;37.85;;;;;;;6.02;100.00;101041.47;5028725;28;20760;-70
2024/03/11 02:36:02;;;;;;;39.67;37.08;;;;;;;6.02;100.00;101041.47;5027871;28;20132;-70
2024/03/11 02:38:30;;;;;;;45.67;42.78;;;;;;;5.81;100.00;101044.59;5029433;28;20469;-69
2024/03/11 02:40:58;;;;;;;43.22;40.42;;;;;;;5.84;100.00;101040.78;5029309;28;20049;-69
2024/03/11 02:43:26;;;;;;;46.22;42.83;;;;;;;5.78;100.00;101034.38;5026763;28;20115;-71
2024/03/11 02:45:53;;;;;;;40.33;37.78;;;;;;;5.85;100.00;101034.53;5031325;28;20587;-71
2024/03/11 02:48:20;;;;;;;41.55;38.88;;;;;;;5.24;100.00;101036.69;5028382;28;20054;-71
2024/03/11 02:50:47;;;;;;;46.17;43.15;;;;;;;5.24;100.00;101047.22;5031330;28;20049;-71
2024/03/11 02:53:15;;;;;;;44.38;41.38;;;;;;;5.44;100.00;101055.63;5029382;28;20425;-71
2024/03/11 02:55:42;;;;;;;44.15;41.15;;;;;;;5.74;100.00;101062.88;5031333;28;20060;-71
2024/03/11 02:58:10;;;;;;;49.47;46.08;;;;;;;6.18;100.00;101065.16;5027483;28;20089;-71
2024/03/11 03:00:37;;;;;;;47.63;44.53;;;;;;;6.27;100.00;101062.50;5029069;28;20061;-70
2024/03/11 03:03:05;;;;;;;40.97;38.38;;;;;;;6.01;100.00;101063.53;5030717;28;20500;-71
2024/03/11 03:05:33;;;;;;;43.55;40.75;;;;;;;6.22;100.00;101059.53;5028691;28;20045;-71
2024/03/11 03:08:00;;;;;;;51.28;47.97;;;;;;;6.14;100.00;101052.47;5031682;28;20068;-71
2024/03/11 03:10:27;;;;;;;42.65;39.95;;;;;;;5.80;100.00;101047.38;5026584;28;20064;-71
2024/03/11 03:12:55;;;;;;;50.05;46.95;;;;;;;5.48;100.00;101059.59;5028034;28;20048;-71
2024/03/11 03:15:23;;;;;;;52.63;49.53;;;;;;;5.51;100.00;101057.44;5027195;28;20061;-71
2024/03/11 03:17:50;;;;;;;44.83;42.13;;;;;;;5.75;100.00;101047.91;5028499;28;20996;-72
2024/03/11 03:20:18;;;;;;;41.70;39.10;;;;;;;5.27;100.00;101052.16;5031043;28;20533;-71
2024/03/11 03:22:50;;;;;;;48.63;45.53;;;;;;;5.20;100.00;101059.06;5026496;28;20053;-71
2024/03/11 03:25:17;;;;;;;51.28;47.88;;;;;;;5.67;100.00;101063.72;5029723;28;20049;-71
2024/03/11 03:27:46;;;;;;;45.90;42.60;;;;;;;5.53;100.00;101053.81;5028567;28;20053;-71
2024/03/11 03:30:15;;;;;;;45.83;42.95;;;;;;;5.71;100.00;101062.38;5028414;28;20056;-69
2024/03/11 03:32:43;;;;;;;52.63;49.03;;;;;;;6.10;100.00;101051.16;5026033;28;20141;-69
2024/03/11 03:35:10;;;;;;;49.78;46.03;;;;;;;5.81;100.00;101039.31;5025836;28;20053;-69
2024/03/11 03:37:37;;;;;;;42.65;39.67;;;;;;;5.73;100.00;101050.69;5028313;28;20060;-69
2024/03/11 03:40:15;;;;;;;46.25;42.53;;;;;;;5.95;100.00;101048.38;5027149;28;20107;-69
2024/03/11 03:42:42;;;;;;;44.17;40.67;;;;;;;6.11;100.00;101043.09;5027902;28;20145;-69
2024/03/11 03:45:10;;;;;;;43.17;40.17;;;;;;;6.06;100.00;101037.50;5026992;28;20049;-69
2024/03/11 03:47:37;;;;;;;47.20;43.35;;;;;;;5.86;100.00;101042.25;5027509;28;20180;-70
2024/03/11 03:50:10;;;;;;;44.58;41.28;;;;;;;5.91;100.00;101047.06;5027254;28;20053;-69
2024/03/11 03:52:38;;;;;;;42.90;39.72;;;;;;;5.90;100.00;101045.38;5028020;28;20056;-70
2024/03/11 03:55:05;;;;;;;44.05;40.75;;;;;;;5.71;100.00;101059.75;5026343;28;20049;-69
2024/03/11 03:57:32;;;;;;;44.45;41.35;;;;;;;5.77;100.00;101056.44;5025487;28;20049;-70
2024/03/11 04:00:05;;;;;;;43.10;40.20;;;;;;;6.01;100.00;101058.25;5024782;28;20049;-70
2024/03/11 04:02:31;;;;;;;42.42;39.45;;;;;;;5.91;100.00;101049.69;5026121;28;20053;-69
2024/03/11 04:04:59;;;;;;;39.92;37.03;;;;;;;5.80;100.00;101056.09;5027182;28;20417;-69
2024/03/11 04:07:28;;;;;;;46.95;43.17;;;;;;;5.83;100.00;101058.41;5027699;28;20761;-70
2024/03/11 04:09:55;;;;;;;45.17;41.97;;;;;;;5.38;100.00;101067.63;5025689;28;20072;-70
2024/03/11 04:12:22;;;;;;;48.95;45.65;;;;;;;5.28;100.00;101064.34;5023608;28;20045;-71
2024/03/11 04:14:49;;;;;;;40.90;37.80;;;;;;;5.55;100.00;101080.84;5026152;28;20080;-71
2024/03/11 04:17:16;;;;;;;41.40;38.30;;;;;;;5.56;100.00;101082.47;5026444;28;20054;-71
2024/03/11 04:19:43;;;;;;;45.03;41.90;;;;;;;5.41;100.00;101087.56;5026015;28;20049;-71
2024/03/11 04:22:12;;;;;;;45.30;42.10;;;;;;;5.41;100.00;101092.81;5025296;28;20512;-71
2024/03/11 04:24:41;;;;;;;40.75;37.75;;;;;;;4.92;100.00;101100.63;5028083;28;20054;-71
2024/03/11 04:27:11;;;;;;;41.03;38.03;;;;;;;5.15;100.00;101104.31;5029662;28;20139;-71
2024/03/11 04:29:38;;;;;;;44.17;40.67;;;;;;;5.19;100.00;101094.28;5028410;28;20513;-71
2024/03/11 04:32:06;;;;;;;50.17;45.67;;;;;;;4.94;100.00;101099.47;5029339;28;20049;-71
2024/03/11 04:34:38;;;;;;;53.10;47.95;;;;;;;5.04;100.00;101094.91;5029677;28;20085;-71
2024/03/11 04:37:06;;;;;;;53.40;48.47;;;;;;;4.83;100.00;101087.41;5028001;28;20425;-71
2024/03/11 04:39:33;;;;;;;58.58;52.20;;;;;;;4.54;100.00;101072.03;5027451;28;20135;-69
2024/03/11 04:42:01;;;;;;;49.83;44.92;;;;;;;4.25;100.00;101082.88;5023322;28;20422;-70
2024/03/11 04:44:28;;;;;;;45.38;41.17;;;;;;;4.15;100.00;101082.19;5027144;28;20058;-69
2024/03/11 04:46:55;;;;;;;46.45;41.72;;;;;;;4.20;100.00;101076.44;5027794;28;20057;-69
2024/03/11 04:49:22;;;;;;;62.58;56.05;;;;;;;4.57;100.00;101081.41;5026391;28;20422;-69
2024/03/11 04:51:49;;;;;;;38.03;35.13;;;;;;;4.65;100.00;101073.53;5025673;28;20056;-69
2024/03/11 04:54:17;;;;;;;41.28;38.53;;;;;;;4.73;100.00;101072.75;5026809;28;20464;-70
2024/03/11 04:56:43;;;;;;;35.13;32.63;;;;;;;4.63;100.00;101074.69;5026184;28;20127;-69
2024/03/11 04:59:13;;;;;;;35.30;32.50;;;;;;;4.38;100.00;101071.94;5026772;28;20132;-69
2024/03/11 05:01:40;;;;;;;42.03;38.97;;;;;;;4.78;100.00;101080.97;5026218;28;20049;-70
2024/03/11 05:04:06;;;;;;;38.13;35.42;;;;;;;5.09;100.00;101080.44;5026234;28;20045;-69
2024/03/11 05:06:33;;;;;;;35.92;33.38;;;;;;;5.09;100.00;101073.38;5023655;28;20057;-70
2024/03/11 05:09:00;;;;;;;36.63;33.92;;;;;;;5.16;100.00;101063.81;5026868;28;20047;-69
2024/03/11 05:11:27;;;;;;;34.10;31.65;;;;;;;5.28;100.00;101059.88;5023006;28;20056;-69
2024/03/11 05:13:56;;;;;;;38.47;35.75;;;;;;;5.62;100.00;101071.28;5026364;28;20060;-69
2024/03/11 05:16:26;;;;;;;42.50;39.40;;;;;;;5.90;100.00;101069.09;5023246;28;20115;-70
2024/03/11 05:18:53;;;;;;;44.38;41.38;;;;;;;6.10;100.00;101078.34;5023125;28;20084;-70
2024/03/11 05:21:22;;;;;;;39.22;36.42;;;;;;;6.21;100.00;101076.38;5027184;28;20076;-70
2024/03/11 05:23:49;;;;;;;39.92;36.90;;;;;;;6.33;100.00;101077.66;5022891;28;20089;-71
2024/03/11 05:26:17;;;;;;;42.22;39.33;;;;;;;6.40;100.00;101070.69;5028456;28;20056;-71
2024/03/11 05:28:44;;;;;;;40.83;38.03;;;;;;;6.43;100.00;101073.00;5027869;28;20568;-70
2024/03/11 05:31:11;;;;;;;40.92;38.33;;;;;;;7.15;100.00;101067.56;5026116;28;20079;-71
2024/03/11 05:33:40;;;;;;;42.92;40.20;;;;;;;6.69;100.00;101063.97;5025953;28;20056;-70
2024/03/11 05:36:07;;;;;;;40.42;37.63;;;;;;;6.63;100.00;101061.06;5025940;28;20136;-70
2024/03/11 05:38:34;;;;;;;42.53;39.53;;;;;;;6.73;100.00;101068.75;5026528;28;20063;-70
2024/03/11 05:41:01;;;;;;;42.95;39.63;;;;;;;6.82;100.00;101072.19;5028464;28;20072;-70
2024/03/11 05:43:28;;;;;;;42.97;39.97;;;;;;;7.04;100.00;101058.19;5024790;28;20980;-70
2024/03/11 05:45:55;;;;;;;38.20;35.50;;;;;;;7.21;100.00;101061.56;5023797;28;20064;-71
2024/03/11 05:48:22;;;;;;;38.80;36.10;;;;;;;7.37;100.00;101054.53;5024735;28;20701;-70
2024/03/11 05:50:51;;;;;;;44.15;40.97;;;;;;;7.53;100.00;101044.66;5024028;28;20605;-70
2024/03/11 05:53:19;;;;;;;43.22;40.08;;;;;;;7.79;100.00;101054.81;5023881;28;20099;-70
2024/03/11 05:55:47;;;;;;;42.63;39.63;;;;;;;7.97;100.00;101053.69;5030306;28;20472;-70
2024/03/11 05:58:15;;;;;;;39.13;36.30;;;;;;;7.95;100.00;101061.78;5029031;28;20045;-70
2024/03/11 06:00:46;;;;;;;38.45;35.85;;;;;;;8.11;100.00;101059.97;5030646;28;20045;-70
2024/03/11 06:03:13;;;;;;;37.25;34.65;;;;;;;8.22;100.00;101070.13;5025699;28;20065;-70
2024/03/11 06:05:40;;;;;;;36.97;34.47;;;;;;;8.16;100.00;101063.72;5030226;28;20052;-70
2024/03/11 06:08:08;;;;;;;38.30;35.45;;;;;;;8.18;100.00;101068.84;5030213;28;20041;-70
2024/03/11 06:10:35;;;;;;;37.92;35.47;;;;;;;8.24;100.00;101061.00;5030511;28;20060;-71
2024/03/11 06:13:02;;;;;;;41.47;38.75;;;;;;;8.29;100.00;101065.75;5029233;28;20042;-71
2024/03/11 06:15:29;;;;;;;37.72;35.33;;;;;;;8.33;100.00;101066.22;5027890;28;20741;-71
2024/03/11 06:17:56;;;;;;;36.88;34.10;;;;;;;8.37;100.00;101062.19;5029970;28;20060;-71
2024/03/11 06:20:23;;;;;;;37.13;34.63;;;;;;;8.45;100.00;101062.13;5029994;28;20104;-69
2024/03/11 06:22:50;;;;;;;38.08;35.47;;;;;;;8.45;100.00;101049.72;5027212;28;20056;-70
2024/03/11 06:25:20;;;;;;;39.55;36.95;;;;;;;8.53;100.00;101050.59;5029535;28;20053;-70
2024/03/11 06:27:49;;;;;;;38.83;36.08;;;;;;;8.53;100.00;101045.31;5027817;28;20111;-70
2024/03/11 06:30:17;;;;;;;40.13;37.53;;;;;;;8.63;100.00;101036.09;5028677;28;20068;-70
2024/03/11 06:32:45;;;;;;;39.15;36.63;;;;;;;8.77;100.00;101042.34;5028818;28;20422;-71
2024/03/11 06:35:13;;;;;;;37.17;34.60;;;;;;;8.95;100.00;101041.94;5026658;28;20060;-71
2024/03/11 06:37:43;;;;;;;38.70;35.80;;;;;;;9.02;100.00;101052.63;5030427;28;20609;-71
2024/03/11 06:40:11;;;;;;;38.92;36.38;;;;;;;9.08;100.00;101050.06;5028816;28;20068;-71
2024/03/11 06:42:40;;;;;;;38.00;35.60;;;;;;;9.13;100.00;101052.13;5026368;28;20050;-72
2024/03/11 06:45:08;;;;;;;37.25;34.80;;;;;;;9.24;100.00;101051.63;5030038;28;20060;-70
2024/03/11 06:47:34;;;;;;;37.63;35.03;;;;;;;9.31;100.00;101052.50;5029519;28;20045;-71
2024/03/11 06:50:02;;;;;;;38.85;36.25;;;;;;;9.41;100.00;101046.91;5030011;28;20061;-71
2024/03/11 06:52:29;;;;;;;39.55;37.05;;;;;;;9.52;100.00;101054.34;5028539;28;20046;-71
2024/03/11 06:54:56;;;;;;;38.90;36.50;;;;;;;9.67;100.00;101058.75;5028971;28;20531;-71
2024/03/11 06:57:23;;;;;;;38.40;35.90;;;;;;;9.82;100.00;101056.84;5028644;28;20794;-71
2024/03/11 06:59:51;;;;;;;40.78;38.13;;;;;;;10.00;100.00;101056.34;5029649;28;20065;-71
2024/03/11 07:02:20;;;;;;;39.58;37.08;;;;;;;10.15;100.00;101046.44;5029628;28;20064;-71
2024/03/11 07:04:47;;;;;;;39.97;37.47;;;;;;;10.26;100.00;101037.13;5024542;28;20504;-71
2024/03/11 07:07:15;;;;;;;43.58;40.47;;;;;;;10.46;100.00;101031.94;5028556;28;20046;-71
2024/03/11 07:09:42;;;;;;;41.53;38.83;;;;;;;10.57;100.00;101025.25;5028293;28;20060;-71
2024/03/11 07:12:09;;;;;;;38.42;36.03;;;;;;;10.66;100.00;101013.44;5024057;28;20415;-71
2024/03/11 07:14:37;;;;;;;40.72;38.17;;;;;;;10.76;100.00;101021.84;5028543;28;20068;-71
2024/03/11 07:17:07;;;;;;;37.45;35.15;;;;;;;10.93;100.00;101022.31;5029336;28;20053;-70
2024/03/11 07:19:38;;;;;;;37.30;34.80;;;;;;;11.17;100.00;101011.09;5025821;28;21332;-71
2024/03/11 07:22:07;;;;;;;36.03;33.83;;;;;;;11.29;100.00;101002.53;5027164;28;20064;-71
2024/03/11 07:24:34;;;;;;;35.30;33.10;;;;;;;11.39;100.00;101002.94;5025150;28;20081;-71
2024/03/11 07:27:00;;;;;;;32.28;30.27;;;;;;;11.61;100.00;101016.84;5028930;28;20045;-71
2024/03/11 07:29:27;;;;;;;33.70;31.60;;;;;;;11.72;100.00;101015.41;5026031;28;20456;-71
2024/03/11 07:31:55;;;;;;;36.65;34.10;;;;;;;11.88;100.00;101015.81;5026395;28;20085;-71
2024/03/11 07:34:23;;;;;;;36.67;34.33;;;;;;;12.03;100.00;101022.78;5028120;28;20157;-71
2024/03/11 07:36:55;;;;;;;32.92;30.98;;;;;;;12.25;100.00;101018.00;5026449;28;20050;-71
2024/03/11 07:39:24;;;;;;;34.38;32.08;;;;;;;12.45;100.00;101004.63;5026329;28;20815;-71
2024/03/11 07:41:51;;;;;;;34.05;32.05;;;;;;;12.71;100.00;101004.50;5027897;28;20496;-71
2024/03/11 07:44:18;;;;;;;33.28;31.27;;;;;;;13.03;100.00;100994.66;5025424;28;20501;-69
2024/03/11 07:46:46;;;;;;;41.05;38.65;;;;;;;13.18;100.00;100998.91;5027876;28;20072;-69
2024/03/11 07:49:13;;;;;;;38.92;36.63;;;;;;;13.22;100.00;101000.09;5027255;28;20500;-70
2024/03/11 07:51:41;;;;;;;30.15;28.15;;;;;;;13.42;100.00;101006.13;5026875;28;20100;-70
2024/03/11 07:54:11;;;;;;;30.90;28.88;;;;;;;13.48;100.00;101005.25;5028672;28;20525;-70
2024/03/11 07:56:38;;;;;;;33.63;31.63;;;;;;;13.61;100.00;100996.31;5025323;28;20410;-70
2024/03/11 07:59:05;;;;;;;34.85;32.63;;;;;;;13.75;100.00;100983.66;5028972;28;20594;-70
2024/03/11 08:01:32;;;;;;;34.40;32.50;;;;;;;13.71;100.00;100988.63;5025252;28;20045;-70
2024/03/11 08:03:59;;;;;;;33.25;30.70;;;;;;;13.93;100.00;100980.22;5023785;28;20061;-70
2024/03/11 08:06:26;;;;;;;32.90;30.92;;;;;;;14.26;100.00;100981.69;5027903;28;20803;-69
2024/03/11 08:08:54;;;;;;;32.30;30.30;;;;;;;14.36;100.00;100988.13;5027612;28;20064;-70
2024/03/11 08:11:21;;;;;;;31.33;29.40;;;;;;;14.52;100.00;100997.41;5024152;28;20897;-69
2024/03/11 08:13:48;;;;;;;34.58;31.77;;;;;;;14.14;100.00;100982.44;5021545;28;20421;-70
2024/03/11 08:16:15;;;;;;;34.53;32.63;;;;;;;14.69;100.00;100964.72;5027976;28;20123;-70
2024/03/11 08:18:43;;;;;;;29.10;27.50;;;;;;;14.92;100.00;100962.13;5025113;28;20049;-70
2024/03/11 08:21:10;;;;;;;30.38;28.58;;;;;;;14.95;100.00;100939.44;5025552;28;20320;-69
2024/03/11 08:23:38;;;;;;;30.60;28.90;;;;;;;15.01;100.00;100928.66;5021400;28;20045;-70
2024/03/11 08:26:07;;;;;;;30.10;28.20;;;;;;;14.79;100.00;100909.66;5024785;28;20049;-70
2024/03/11 08:28:38;;;;;;;31.35;29.55;;;;;;;14.61;100.00;100912.38;5024925;28;20092;-70
2024/03/11 08:31:08;;;;;;;30.80;29.10;;;;;;;13.33;100.00;100911.41;5022738;28;20057;-70
2024/03/11 08:33:35;;;;;;;31.05;29.33;;;;;;;14.00;100.00;100914.19;5025179;28;20135;-71
2024/03/11 08:36:04;;;;;;;30.63;28.83;;;;;;;13.45;100.00;100941.66;5026317;28;20905;-71
2024/03/11 08:38:31;;;;;;;32.83;31.02;;;;;;;13.53;100.00;100959.25;5026464;28;20739;-71
2024/03/11 08:40:58;;;;;;;33.63;31.67;;;;;;;13.75;100.00;100984.47;5024966;28;20080;-70
2024/03/11 08:43:27;;;;;;;33.53;31.73;;;;;;;12.28;100.00;100996.28;5025767;28;20099;-71
2024/03/11 08:45:56;;;;;;;33.95;31.75;;;;;;;12.14;100.00;101017.63;5026665;28;20049;-70
2024/03/11 08:48:23;;;;;;;31.55;29.75;;;;;;;12.17;100.00;101023.56;5022671;28;20053;-70
2024/03/11 08:50:50;;;;;;;33.40;31.38;;;;;;;13.23;100.00;101001.75;5023021;28;20360;-70
2024/03/11 08:53:17;;;;;;;30.67;28.88;;;;;;;13.04;100.00;100991.00;5024581;28;20677;-71
2024/03/11 08:55:43;;;;;;;28.73;27.00;;;;;;;12.17;100.00;100973.78;5024573;28;20057;-71
2024/03/11 08:58:12;;;;;;;28.88;27.08;;;;;;;11.73;100.00;100977.94;5023993;28;20053;-70
2024/03/11 09:00:40;;;;;;;34.47;32.38;;;;;;;11.86;100.00;100975.31;5026940;28;20053;-70
2024/03/11 09:03:07;;;;;;;30.35;28.55;;;;;;;11.97;100.00;100975.69;5023419;28;20045;-69
2024/03/11 09:05:34;;;;;;;31.30;29.40;;;;;;;12.00;100.00;100973.41;5020260;28;20155;-70
2024/03/11 09:08:03;;;;;;;31.17;29.38;;;;;;;12.70;100.00;100981.53;5024949;28;20053;-70
2024/03/11 09:10:30;;;;;;;35.13;32.83;;;;;;;12.69;100.00;100990.56;5020773;28;20500;-70
2024/03/11 09:12:58;;;;;;;30.33;28.33;;;;;;;12.13;100.00;100985.88;5023631;28;20046;-70
2024/03/11 09:15:25;;;;;;;33.40;31.30;;;;;;;12.28;100.00;100982.97;5024271;28;20053;-70
2024/03/11 09:17:54;;;;;;;32.58;30.67;;;;;;;12.11;100.00;100972.78;5024646;28;20049;-70
2024/03/11 09:20:26;;;;;;;29.13;27.23;;;;;;;12.01;100.00;100979.56;5024159;28;20049;-70
2024/03/11 09:22:56;;;;;;;28.95;27.05;;;;;;;11.99;100.00;100978.97;5025310;28;20049;-71
2024/03/11 09:25:24;;;;;;;28.75;26.88;;;;;;;12.36;100.00;100977.41;5020259;28;20049;-70
2024/03/11 09:27:52;;;;;;;31.98;29.70;;;;;;;12.37;100.00;100979.88;5023414;28;20119;-70
2024/03/11 09:30:19;;;;;;;28.38;26.55;;;;;;;12.31;100.00;100980.69;5023855;28;20193;-70
2024/03/11 09:32:49;;;;;;;29.08;27.20;;;;;;;12.56;100.00;100988.00;5025062;28;20138;-70
2024/03/11 09:35:18;;;;;;;30.17;28.00;;;;;;;12.28;100.00;100999.75;5022660;28;20057;-71
2024/03/11 09:37:47;;;;;;;30.13;28.13;;;;;;;12.49;100.00;100996.00;5023798;28;20049;-71
2024/03/11 09:40:16;;;;;;;30.20;28.30;;;;;;;12.59;100.00;101001.69;5024279;28;20054;-70
2024/03/11 09:42:48;;;;;;;30.58;28.55;;;;;;;12.35;100.00;100997.09;5021479;28;20085;-71
2024/03/11 09:45:17;;;;;;;29.75;27.75;;;;;;;12.37;100.00;100998.53;5024286;28;20049;-70
2024/03/11 09:47:52;;;;;;;32.60;30.25;;;;;;;12.43;100.00;100988.03;5024928;28;20599;-70
2024/03/11 09:50:26;;;;;;;29.13;27.23;;;;;;;11.94;100.00;100978.78;5025018;28;20053;-70
2024/03/11 09:52:58;;;;;;;30.58;28.58;;;;;;;12.23;100.00;100972.94;5023546;28;20049;-70
2024/03/11 09:55:28;;;;;;;28.77;27.07;;;;;;;11.99;100.00;100952.34;5022769;28;20049;-70
2024/03/11 09:57:59;;;;;;;27.85;26.25;;;;;;;12.03;100.00;100940.25;5021454;28;20739;-70
2024/03/11 10:00:27;;;;;;;26.88;25.20;;;;;;;11.85;100.00;100941.72;5024623;28;20061;-69
2024/03/11 10:02:59;;;;;;;27.63;25.90;;;;;;;11.99;100.00;100947.03;5023820;28;20060;-70
2024/03/11 10:05:30;;;;;;;29.33;27.52;;;;;;;12.14;100.00;100951.06;5024604;28;20051;-69
2024/03/11 10:07:58;;;;;;;28.83;27.02;;;;;;;11.97;100.00;100951.72;5018162;28;20049;-69
2024/03/11 10:10:26;;;;;;;29.70;27.90;;;;;;;12.25;100.00;100962.88;5022077;28;20119;-69
2024/03/11 10:12:54;;;;;;;31.20;29.23;;;;;;;11.95;100.00;100969.75;5024902;28;20798;-70
2024/03/11 10:15:27;;;;;;;31.90;29.90;;;;;;;12.29;100.00;100980.09;5024955;28;20045;-70
2024/03/11 10:17:56;;;;;;;30.02;27.95;;;;;;;12.12;100.00;100987.72;5019256;28;20050;-70
2024/03/11 10:20:24;;;;;;;30.40;28.30;;;;;;;12.28;100.00;100991.75;5025916;28;20041;-70
2024/03/11 10:22:55;;;;;;;33.42;31.23;;;;;;;12.69;100.00;101011.09;5028794;28;20085;-70
2024/03/11 10:25:27;;;;;;;31.00;28.80;;;;;;;12.79;100.00;101017.56;5020422;28;20115;-70
2024/03/11 10:27:55;;;;;;;31.27;29.20;;;;;;;12.58;100.00;100994.72;5023827;28;20065;-70
2024/03/11 10:30:23;;;;;;;33.15;30.52;;;;;;;12.27;100.00;101002.63;5024450;28;20504;-70
2024/03/11 10:32:55;;;;;;;33.03;30.90;;;;;;;12.65;100.00;101017.84;5024854;28;20058;-70
2024/03/11 10:35:22;;;;;;;32.40;30.20;;;;;;;12.83;100.00;101021.47;5023695;28;20046;-70
2024/03/11 10:37:51;;;;;;;33.13;30.88;;;;;;;12.76;100.00;101030.50;5025791;28;20727;-70
2024/03/11 10:40:31;;;;;;;28.63;26.73;;;;;;;12.42;100.00;101032.50;5027544;28;20049;-70
2024/03/11 10:43:19;;;;;;;29.85;27.83;;;;;;;12.60;100.00;101019.31;5026877;28;20076;-70
2024/03/11 10:45:47;;;;;;;29.42;27.52;;;;;;;12.75;100.00;101020.91;5027779;28;20434;-69
2024/03/11 10:48:15;;;;;;;28.67;26.98;;;;;;;12.47;100.00;101018.56;5024650;28;20057;-70
2024/03/11 10:50:42;;;;;;;30.20;28.05;;;;;;;12.28;100.00;101012.25;5028340;28;20057;-70
2024/03/11 10:53:16;;;;;;;30.63;28.63;;;;;;;12.57;100.00;101022.41;5028384;28;20068;-70
2024/03/11 10:55:50;;;;;;;31.77;29.67;;;;;;;12.58;100.00;101018.69;5029151;28;20528;-70
2024/03/11 10:58:19;;;;;;;28.00;26.10;;;;;;;12.50;100.00;101012.81;5024211;28;20106;-70
2024/03/11 11:00:48;;;;;;;30.10;28.10;;;;;;;12.72;100.00;101013.31;4674578;28;9999849;-70
2024/03/11 11:03:16;;;;;;;30.73;28.60;;;;;;;12.74;100.00;101008.59;5018892;28;20643;-70
2024/03/11 11:05:51;;;;;;;34.08;31.77;;;;;;;12.81;100.00;100996.88;5025552;28;20053;-71
2024/03/11 11:08:22;;;;;;;31.08;28.77;;;;;;;12.97;100.00;101013.38;5024185;28;20107;-69
2024/03/11 11:10:51;;;;;;;31.60;29.50;;;;;;;12.99;100.00;101006.00;5024007;28;20502;-70